sensor_id;sensor_type;location;lat;lon;timestamp;temperature;humidity
949;DHT22;461;51.436;7.312;2024-03-02T00:02:24;10.60;99.90
949;DHT22;461;51.436;7.312;2024-03-02T00:04:51;10.60;99.90
949;DHT22;461;51.436;7.312;2024-03-02T00:07:17;10.50;99.90
949;DHT22;461;51.436;7.312;2024-03-02T00:09:43;10.50;99.90
949;DHT22;461;51.436;7.312;2024-03-02T00:12:12;10.50;99.90
949;DHT22;461;51.436;7.312;2024-03-02T00:14:41;10.50;99.90
949;DHT22;461;51.436;7.312;2024-03-02T00:17:21;10.50;99.90
949;DHT22;461;51.436;7.312;2024-03-02T00:19:50;10.50;99.90
949;DHT22;461;51.436;7.312;2024-03-02T00:22:16;10.40;99.90
949;DHT22;461;51.436;7.312;2024-03-02T00:24:42;10.40;99.90
949;DHT22;461;51.436;7.312;2024-03-02T00:27:08;10.40;99.90
949;DHT22;461;51.436;7.312;2024-03-02T00:29:38;10.50;99.90
949;DHT22;461;51.436;7.312;2024-03-02T00:32:13;10.50;99.90
949;DHT22;461;51.436;7.312;2024-03-02T00:34:39;10.40;99.90
949;DHT22;461;51.436;7.312;2024-03-02T00:37:05;10.40;99.90
949;DHT22;461;51.436;7.312;2024-03-02T00:39:31;10.40;99.90
949;DHT22;461;51.436;7.312;2024-03-02T00:41:57;10.30;99.90
949;DHT22;461;51.436;7.312;2024-03-02T00:44:25;10.30;99.90
949;DHT22;461;51.436;7.312;2024-03-02T00:46:56;10.40;99.90
949;DHT22;461;51.436;7.312;2024-03-02T00:49:24;10.40;99.90
949;DHT22;461;51.436;7.312;2024-03-02T00:51:52;10.40;99.90
949;DHT22;461;51.436;7.312;2024-03-02T00:54:25;10.40;99.90
949;DHT22;461;51.436;7.312;2024-03-02T00:56:52;10.40;99.90
949;DHT22;461;51.436;7.312;2024-03-02T00:59:20;10.40;99.90
949;DHT22;461;51.436;7.312;2024-03-02T01:01:48;10.30;99.90
949;DHT22;461;51.436;7.312;2024-03-02T01:04:14;10.20;99.90
949;DHT22;461;51.436;7.312;2024-03-02T01:06:42;10.20;99.90
949;DHT22;461;51.436;7.312;2024-03-02T01:09:07;10.30;99.90
949;DHT22;461;51.436;7.312;2024-03-02T01:11:33;10.30;99.90
949;DHT22;461;51.436;7.312;2024-03-02T01:13:59;10.30;99.90
949;DHT22;461;51.436;7.312;2024-03-02T01:16:25;10.30;99.90
949;DHT22;461;51.436;7.312;2024-03-02T01:18:50;10.30;99.90
949;DHT22;461;51.436;7.312;2024-03-02T01:21:16;10.30;99.90
949;DHT22;461;51.436;7.312;2024-03-02T01:23:42;10.20;99.90
949;DHT22;461;51.436;7.312;2024-03-02T01:26:08;10.20;99.90
949;DHT22;461;51.436;7.312;2024-03-02T01:28:34;10.20;99.90
949;DHT22;461;51.436;7.312;2024-03-02T01:31:00;10.20;99.90
949;DHT22;461;51.436;7.312;2024-03-02T01:33:26;10.20;99.90
949;DHT22;461;51.436;7.312;2024-03-02T10:25:11;15.70;99.90
949;DHT22;461;51.436;7.312;2024-03-02T10:28:02;15.60;99.90
949;DHT22;461;51.436;7.312;2024-03-02T10:30:47;15.50;99.90
949;DHT22;461;51.436;7.312;2024-03-02T10:33:21;15.60;99.90
949;DHT22;461;51.436;7.312;2024-03-02T10:35:50;15.70;99.90
949;DHT22;461;51.436;7.312;2024-03-02T10:38:27;15.90;99.90
949;DHT22;461;51.436;7.312;2024-03-02T10:40:56;16.10;99.90
949;DHT22;461;51.436;7.312;2024-03-02T10:43:33;16.20;99.90
949;DHT22;461;51.436;7.312;2024-03-02T10:46:02;16.30;99.90
949;DHT22;461;51.436;7.312;2024-03-02T10:48:34;16.50;99.90
949;DHT22;461;51.436;7.312;2024-03-02T10:51:29;16.60;99.90
949;DHT22;461;51.436;7.312;2024-03-02T10:54:00;16.60;99.90
949;DHT22;461;51.436;7.312;2024-03-02T10:56:31;16.60;99.90
949;DHT22;461;51.436;7.312;2024-03-02T10:59:34;16.50;99.90
949;DHT22;461;51.436;7.312;2024-03-02T11:02:23;16.40;99.90
949;DHT22;461;51.436;7.312;2024-03-02T11:04:57;16.50;99.90
949;DHT22;461;51.436;7.312;2024-03-02T11:07:27;16.50;99.90
949;DHT22;461;51.436;7.312;2024-03-02T11:09:58;16.50;99.90
949;DHT22;461;51.436;7.312;2024-03-02T11:12:43;16.60;99.90
949;DHT22;461;51.436;7.312;2024-03-02T11:15:22;16.80;99.90
949;DHT22;461;51.436;7.312;2024-03-02T12:43:30;17.00;99.90
949;DHT22;461;51.436;7.312;2024-03-02T13:21:57;16.80;99.90
949;DHT22;461;51.436;7.312;2024-03-02T13:24:23;17.00;99.90
949;DHT22;461;51.436;7.312;2024-03-02T13:26:54;17.00;99.90
949;DHT22;461;51.436;7.312;2024-03-02T13:29:27;16.90;99.90
949;DHT22;461;51.436;7.312;2024-03-02T13:31:54;16.80;99.90
949;DHT22;461;51.436;7.312;2024-03-02T13:34:23;16.60;99.90
949;DHT22;461;51.436;7.312;2024-03-02T20:13:05;14.70;99.90
949;DHT22;461;51.436;7.312;2024-03-02T20:15:32;14.70;99.90
949;DHT22;461;51.436;7.312;2024-03-02T20:17:58;14.70;99.90
949;DHT22;461;51.436;7.312;2024-03-02T20:20:24;14.70;99.90
949;DHT22;461;51.436;7.312;2024-03-02T20:22:50;14.60;99.90
949;DHT22;461;51.436;7.312;2024-03-02T20:25:15;14.60;99.90
949;DHT22;461;51.436;7.312;2024-03-02T20:27:41;14.60;99.90
949;DHT22;461;51.436;7.312;2024-03-02T20:30:09;14.70;99.90
949;DHT22;461;51.436;7.312;2024-03-02T20:32:35;14.70;99.90
949;DHT22;461;51.436;7.312;2024-03-02T20:35:01;14.70;99.90
949;DHT22;461;51.436;7.312;2024-03-02T20:37:27;14.70;99.90
949;DHT22;461;51.436;7.312;2024-03-02T20:39:53;14.60;99.90
949;DHT22;461;51.436;7.312;2024-03-02T20:42:26;14.60;99.90
949;DHT22;461;51.436;7.312;2024-03-02T20:44:52;14.60;99.90
949;DHT22;461;51.436;7.312;2024-03-02T20:47:19;14.70;99.90
949;DHT22;461;51.436;7.312;2024-03-02T20:49:45;14.60;99.90
949;DHT22;461;51.436;7.312;2024-03-02T20:52:10;14.60;99.90
949;DHT22;461;51.436;7.312;2024-03-02T20:54:36;14.50;99.90
949;DHT22;461;51.436;7.312;2024-03-02T20:57:05;14.50;99.90
949;DHT22;461;51.436;7.312;2024-03-02T20:59:34;14.50;99.90
949;DHT22;461;51.436;7.312;2024-03-02T21:02:01;14.50;99.90
949;DHT22;461;51.436;7.312;2024-03-02T21:04:27;14.50;99.90
949;DHT22;461;51.436;7.312;2024-03-02T21:06:53;14.50;99.90
949;DHT22;461;51.436;7.312;2024-03-02T21:09:19;14.30;99.90
949;DHT22;461;51.436;7.312;2024-03-02T21:11:45;14.40;99.90
949;DHT22;461;51.436;7.312;2024-03-02T21:14:13;14.50;99.90
949;DHT22;461;51.436;7.312;2024-03-02T21:16:39;14.50;99.90
949;DHT22;461;51.436;7.312;2024-03-02T21:19:08;14.60;99.90
949;DHT22;461;51.436;7.312;2024-03-02T21:21:35;14.60;99.90
949;DHT22;461;51.436;7.312;2024-03-02T21:24:03;14.60;99.90
949;DHT22;461;51.436;7.312;2024-03-02T21:26:29;14.50;99.90
949;DHT22;461;51.436;7.312;2024-03-02T21:28:56;14.50;99.90
949;DHT22;461;51.436;7.312;2024-03-02T21:31:22;14.40;99.90
949;DHT22;461;51.436;7.312;2024-03-02T21:33:48;14.40;99.90
949;DHT22;461;51.436;7.312;2024-03-02T21:36:14;14.30;99.90
949;DHT22;461;51.436;7.312;2024-03-02T21:38:40;14.30;99.90
949;DHT22;461;51.436;7.312;2024-03-02T21:41:05;14.30;99.90
949;DHT22;461;51.436;7.312;2024-03-02T21:43:32;14.30;99.90
949;DHT22;461;51.436;7.312;2024-03-02T21:45:58;14.20;99.90
949;DHT22;461;51.436;7.312;2024-03-02T21:48:24;14.20;99.90
949;DHT22;461;51.436;7.312;2024-03-02T21:50:50;14.30;99.90
949;DHT22;461;51.436;7.312;2024-03-02T21:53:15;14.30;99.90
949;DHT22;461;51.436;7.312;2024-03-02T21:55:41;14.20;99.90
949;DHT22;461;51.436;7.312;2024-03-02T21:58:07;14.20;99.90
949;DHT22;461;51.436;7.312;2024-03-02T22:00:33;14.30;99.90
949;DHT22;461;51.436;7.312;2024-03-02T22:03:01;14.20;99.90
949;DHT22;461;51.436;7.312;2024-03-02T22:05:28;14.20;99.90
949;DHT22;461;51.436;7.312;2024-03-02T22:07:54;14.10;99.90
949;DHT22;461;51.436;7.312;2024-03-02T22:10:20;14.20;99.90
949;DHT22;461;51.436;7.312;2024-03-02T22:12:46;14.30;99.90
949;DHT22;461;51.436;7.312;2024-03-02T22:15:12;14.20;99.90
949;DHT22;461;51.436;7.312;2024-03-02T22:17:38;14.10;99.90
949;DHT22;461;51.436;7.312;2024-03-02T22:20:04;14.10;99.90
949;DHT22;461;51.436;7.312;2024-03-02T22:22:30;14.10;99.90
949;DHT22;461;51.436;7.312;2024-03-02T22:24:56;14.10;99.90
949;DHT22;461;51.436;7.312;2024-03-02T22:27:21;14.00;99.90
949;DHT22;461;51.436;7.312;2024-03-02T22:29:47;14.00;99.90
949;DHT22;461;51.436;7.312;2024-03-02T22:32:13;14.10;99.90
949;DHT22;461;51.436;7.312;2024-03-02T22:34:38;14.10;99.90
949;DHT22;461;51.436;7.312;2024-03-02T22:37:04;14.00;99.90
949;DHT22;461;51.436;7.312;2024-03-02T22:39:30;13.90;99.90
949;DHT22;461;51.436;7.312;2024-03-02T22:41:56;13.90;99.90
949;DHT22;461;51.436;7.312;2024-03-02T22:44:21;13.80;99.90
949;DHT22;461;51.436;7.312;2024-03-02T22:46:47;13.90;99.90
949;DHT22;461;51.436;7.312;2024-03-02T22:49:13;13.90;99.90
949;DHT22;461;51.436;7.312;2024-03-02T22:51:39;13.90;99.90
949;DHT22;461;51.436;7.312;2024-03-02T22:54:05;13.90;99.90
949;DHT22;461;51.436;7.312;2024-03-02T22:56:30;13.90;99.90
949;DHT22;461;51.436;7.312;2024-03-02T22:58:56;14.00;99.90
949;DHT22;461;51.436;7.312;2024-03-02T23:01:22;14.00;99.90
949;DHT22;461;51.436;7.312;2024-03-02T23:03:48;14.00;99.90
949;DHT22;461;51.436;7.312;2024-03-02T23:06:14;14.00;99.90
949;DHT22;461;51.436;7.312;2024-03-02T23:08:40;13.90;99.90
949;DHT22;461;51.436;7.312;2024-03-02T23:11:05;13.80;99.90
949;DHT22;461;51.436;7.312;2024-03-02T23:13:32;13.80;99.90
949;DHT22;461;51.436;7.312;2024-03-02T23:15:57;13.70;99.90
949;DHT22;461;51.436;7.312;2024-03-02T23:18:26;13.70;99.90
949;DHT22;461;51.436;7.312;2024-03-02T23:20:52;13.80;99.90
949;DHT22;461;51.436;7.312;2024-03-02T23:23:18;13.70;99.90
949;DHT22;461;51.436;7.312;2024-03-02T23:25:45;13.70;99.90
949;DHT22;461;51.436;7.312;2024-03-02T23:28:11;13.70;99.90
949;DHT22;461;51.436;7.312;2024-03-02T23:30:36;13.70;99.90
949;DHT22;461;51.436;7.312;2024-03-02T23:33:03;13.60;99.90
949;DHT22;461;51.436;7.312;2024-03-02T23:35:28;13.50;99.90
949;DHT22;461;51.436;7.312;2024-03-02T23:37:54;13.50;99.90
949;DHT22;461;51.436;7.312;2024-03-02T23:40:26;13.50;99.90
949;DHT22;461;51.436;7.312;2024-03-02T23:43:10;13.60;99.90
949;DHT22;461;51.436;7.312;2024-03-02T23:45:36;13.50;99.90
949;DHT22;461;51.436;7.312;2024-03-02T23:48:02;13.50;99.90
949;DHT22;461;51.436;7.312;2024-03-02T23:50:28;13.50;99.90
949;DHT22;461;51.436;7.312;2024-03-02T23:52:54;13.40;99.90
949;DHT22;461;51.436;7.312;2024-03-02T23:55:20;13.40;99.90
949;DHT22;461;51.436;7.312;2024-03-02T23:57:45;13.40;99.90
